createdAt,value
2023-02-19T00:00:23.515Z,5.59
2023-02-19T00:01:27.156Z,5.67
2023-02-19T00:02:28.948Z,5.74
2023-02-19T00:03:30.609Z,5.72
2023-02-19T00:04:32.251Z,5.68
2023-02-19T00:05:35.338Z,5.66
2023-02-19T00:06:37.048Z,5.67
2023-02-19T00:07:38.636Z,5.74
2023-02-19T00:08:40.954Z,5.78
2023-02-19T00:09:43.870Z,5.85
2023-02-19T00:10:45.416Z,5.81
2023-02-19T00:11:47.836Z,5.68
2023-02-19T00:12:49.470Z,5.61
2023-02-19T00:13:53.261Z,5.65
2023-02-19T00:14:57.120Z,5.74
2023-02-19T00:15:58.775Z,5.81
2023-02-19T00:17:00.355Z,5.86
2023-02-19T00:18:01.910Z,5.92
2023-02-19T00:19:06.324Z,5.96
2023-02-19T00:20:08.342Z,6.02
2023-02-19T00:21:10.834Z,6.05
2023-02-19T00:22:12.545Z,6.09
2023-02-19T00:23:14.125Z,6.12
2023-02-19T00:24:15.678Z,6.16
2023-02-19T00:25:17.314Z,6.19
2023-02-19T00:26:19.468Z,6.23
2023-02-19T00:27:22.348Z,6.21
2023-02-19T00:28:23.901Z,6.22
2023-02-19T00:29:25.442Z,6.04
2023-02-19T00:30:27.084Z,5.80
2023-02-19T00:31:34.040Z,5.65
2023-02-19T00:32:35.694Z,5.59
2023-02-19T00:33:37.231Z,5.62
2023-02-19T00:34:38.789Z,5.62
2023-02-19T00:35:40.292Z,5.62
2023-02-19T00:36:42.945Z,5.69
2023-02-19T00:37:44.506Z,5.71
2023-02-19T00:38:46.448Z,5.74
2023-02-19T00:39:48.549Z,5.77
2023-02-19T00:40:50.080Z,5.85
2023-02-19T00:41:52.398Z,5.93
2023-02-19T00:42:53.953Z,5.96
2023-02-19T00:44:00.602Z,5.99
2023-02-19T00:45:02.174Z,6.05
2023-02-19T00:46:04.004Z,6.07
2023-02-19T00:47:05.945Z,6.06
2023-02-19T00:48:07.544Z,6.09
2023-02-19T00:49:15.020Z,6.14
2023-02-19T00:50:16.639Z,6.17
2023-02-19T00:51:19.120Z,6.15
2023-02-19T00:52:20.682Z,6.15
2023-02-19T00:53:22.230Z,5.90
2023-02-19T00:54:24.005Z,5.74
2023-02-19T00:55:25.550Z,5.64
2023-02-19T00:56:27.285Z,5.49
2023-02-19T00:57:28.949Z,5.33
2023-02-19T00:58:30.542Z,5.26
2023-02-19T00:59:32.062Z,5.17
2023-02-19T01:00:33.701Z,5.13
2023-02-19T01:01:35.368Z,5.11
2023-02-19T01:02:36.940Z,5.07
2023-02-19T01:03:39.874Z,5.10
2023-02-19T01:04:41.431Z,5.11
2023-02-19T01:05:42.987Z,5.10
2023-02-19T01:06:44.670Z,5.08
2023-02-19T01:07:46.232Z,5.03
2023-02-19T01:08:48.290Z,5.02
2023-02-19T01:09:49.974Z,5.03
2023-02-19T01:10:51.504Z,5.06
2023-02-19T01:11:53.023Z,5.13
2023-02-19T01:12:54.600Z,5.20
2023-02-19T01:14:00.891Z,5.27
2023-02-19T01:15:02.409Z,5.35
2023-02-19T01:16:13.769Z,5.42
2023-02-19T01:17:15.323Z,5.46
2023-02-19T01:18:17.090Z,5.51
2023-02-19T01:19:18.672Z,5.53
2023-02-19T01:20:20.180Z,5.55
2023-02-19T01:21:24.085Z,5.59
2023-02-19T01:22:25.697Z,5.60
2023-02-19T01:23:27.230Z,5.64
2023-02-19T01:24:28.787Z,5.65
2023-02-19T01:25:30.368Z,5.67
2023-02-19T01:26:33.412Z,5.70
2023-02-19T01:27:34.964Z,5.73
2023-02-19T01:28:36.520Z,5.73
2023-02-19T01:29:38.156Z,5.62
2023-02-19T01:30:39.780Z,5.53
2023-02-19T01:31:42.409Z,5.57
2023-02-19T01:32:44.038Z,5.59
2023-02-19T01:33:55.056Z,5.63
2023-02-19T01:34:56.625Z,5.67
2023-02-19T01:35:58.604Z,5.72
2023-02-19T01:37:00.227Z,5.74
2023-02-19T01:38:01.793Z,5.76
2023-02-19T01:39:05.783Z,5.77
2023-02-19T01:40:07.971Z,5.77
2023-02-19T01:41:12.658Z,5.81
2023-02-19T01:42:17.033Z,5.81
2023-02-19T01:43:18.588Z,5.82
2023-02-19T01:44:20.096Z,5.84
2023-02-19T01:45:21.662Z,5.87
2023-02-19T01:46:29.368Z,5.87
2023-02-19T01:47:31.029Z,5.86
2023-02-19T01:48:38.319Z,5.84
2023-02-19T01:49:54.899Z,5.87
2023-02-19T01:51:17.885Z,5.86
2023-02-19T01:52:27.088Z,5.78
2023-02-19T01:53:32.128Z,5.77
2023-02-19T01:54:38.293Z,5.66
2023-02-19T01:55:40.988Z,5.55
2023-02-19T01:56:44.830Z,5.50
2023-02-19T01:57:51.635Z,5.35
2023-02-19T01:58:54.027Z,5.29
2023-02-19T02:00:00.261Z,5.25
2023-02-19T02:01:04.840Z,5.23
2023-02-19T02:02:06.883Z,5.13
2023-02-19T02:03:08.706Z,5.00
2023-02-19T02:04:12.243Z,4.84
2023-02-19T02:05:39.944Z,4.79
2023-02-19T02:06:50.154Z,4.84
2023-02-19T02:08:10.916Z,4.94
2023-02-19T02:09:31.529Z,5.01
2023-02-19T02:10:34.114Z,5.08
2023-02-19T02:11:36.296Z,5.12
2023-02-19T02:12:37.896Z,5.15
2023-02-19T02:13:40.813Z,5.09
2023-02-19T02:14:47.378Z,4.97
2023-02-19T02:15:57.328Z,4.75
2023-02-19T02:17:13.852Z,4.61
2023-02-19T02:18:48.229Z,4.58
2023-02-19T02:20:06.912Z,4.57
2023-02-19T02:21:29.803Z,4.60
2023-02-19T02:22:38.902Z,4.60
2023-02-19T02:24:10.195Z,4.57
2023-02-19T02:25:20.879Z,4.39
2023-02-19T02:26:35.628Z,4.27
2023-02-19T02:27:49.348Z,4.21
2023-02-19T02:29:19.093Z,4.16
2023-02-19T02:30:46.275Z,4.20
2023-02-19T02:32:21.721Z,4.22
2023-02-19T02:33:45.499Z,4.24
2023-02-19T02:34:56.377Z,4.11
2023-02-19T02:36:08.807Z,4.05
2023-02-19T02:37:12.416Z,3.97
2023-02-19T02:38:15.296Z,4.06
2023-02-19T02:39:21.059Z,4.14
2023-02-19T02:40:22.643Z,4.21
2023-02-19T02:41:25.220Z,4.23
2023-02-19T02:42:29.703Z,4.24
2023-02-19T02:43:31.986Z,4.22
2023-02-19T02:44:37.457Z,4.17
2023-02-19T02:45:40.082Z,4.16
2023-02-19T02:46:44.881Z,4.13
2023-02-19T02:47:56.563Z,4.17
2023-02-19T02:49:03.370Z,4.03
2023-02-19T02:50:05.448Z,3.92
2023-02-19T02:51:41.551Z,3.82
2023-02-19T02:53:06.677Z,3.71
2023-02-19T02:54:37.217Z,3.68
2023-02-19T02:55:43.188Z,3.77
2023-02-19T02:56:46.917Z,3.90
2023-02-19T02:57:48.503Z,3.96
2023-02-19T02:58:51.846Z,4.01
2023-02-19T02:59:53.660Z,3.78
2023-02-19T03:01:20.002Z,3.56
2023-02-19T03:02:26.178Z,3.59
2023-02-19T03:03:30.804Z,3.59
2023-02-19T03:05:18.677Z,3.48
2023-02-19T03:06:23.589Z,3.15
2023-02-19T03:07:29.134Z,2.99
2023-02-19T03:08:38.283Z,2.99
2023-02-19T03:09:43.234Z,3.07
2023-02-19T03:10:47.377Z,3.10
2023-02-19T03:12:09.954Z,2.99
2023-02-19T03:13:38.907Z,2.93
2023-02-19T03:15:13.150Z,2.94
2023-02-19T03:16:42.923Z,2.95
2023-02-19T03:18:09.587Z,2.95
2023-02-19T03:19:19.200Z,2.98
2023-02-19T03:20:24.582Z,3.14
2023-02-19T03:21:28.639Z,3.25
2023-02-19T03:22:34.026Z,3.31
2023-02-19T03:23:55.731Z,3.38
2023-02-19T03:25:19.960Z,3.34
2023-02-19T03:26:22.158Z,3.39
2023-02-19T03:27:28.234Z,3.42
2023-02-19T03:28:51.755Z,3.45
2023-02-19T03:29:56.539Z,3.56
2023-02-19T03:30:58.171Z,3.63
2023-02-19T03:32:08.887Z,3.60
2023-02-19T03:33:17.349Z,3.50
2023-02-19T03:34:48.642Z,3.52
2023-02-19T03:35:56.350Z,3.45
2023-02-19T03:37:13.357Z,3.51
2023-02-19T03:38:29.930Z,3.42
2023-02-19T03:39:32.387Z,3.40
2023-02-19T03:40:44.409Z,3.41
2023-02-19T03:42:24.209Z,3.42
2023-02-19T03:44:03.139Z,3.39
2023-02-19T03:45:15.055Z,3.42
2023-02-19T03:46:44.848Z,3.31
2023-02-19T03:48:00.484Z,3.15
2023-02-19T03:49:08.528Z,3.11
2023-02-19T03:50:19.981Z,3.19
2023-02-19T03:51:39.610Z,3.19
2023-02-19T03:52:58.357Z,3.28
2023-02-19T03:54:13.240Z,3.21
2023-02-19T03:55:34.264Z,2.97
2023-02-19T03:56:45.324Z,2.80
2023-02-19T03:58:07.742Z,2.80
2023-02-19T03:59:35.438Z,2.85
2023-02-19T04:01:09.597Z,2.99
2023-02-19T04:02:24.301Z,3.03
2023-02-19T04:03:44.360Z,2.71
2023-02-19T04:04:51.836Z,2.50
2023-02-19T04:06:02.790Z,2.39
2023-02-19T04:07:04.788Z,2.38
2023-02-19T04:08:13.608Z,2.54
2023-02-19T04:09:16.729Z,2.59
2023-02-19T04:10:19.854Z,2.67
2023-02-19T04:11:23.156Z,2.77
2023-02-19T04:12:25.341Z,2.78
2023-02-19T04:13:32.987Z,2.57
2023-02-19T04:14:43.954Z,2.37
2023-02-19T04:15:48.657Z,2.29
2023-02-19T04:16:55.792Z,2.37
2023-02-19T04:18:06.002Z,2.49
2023-02-19T04:19:11.678Z,2.61
2023-02-19T04:20:14.396Z,2.68
2023-02-19T04:21:16.737Z,2.74
2023-02-19T04:22:19.440Z,2.83
2023-02-19T04:23:26.573Z,2.95
2023-02-19T04:24:34.480Z,2.98
2023-02-19T04:25:39.812Z,2.94
2023-02-19T04:26:42.855Z,2.69
2023-02-19T04:27:45.868Z,2.52
2023-02-19T04:28:47.464Z,2.44
2023-02-19T04:29:49.132Z,2.45
2023-02-19T04:30:50.756Z,2.49
2023-02-19T04:31:52.425Z,2.65
2023-02-19T04:32:54.045Z,2.69
2023-02-19T04:33:55.610Z,2.72
2023-02-19T04:34:57.175Z,2.78
2023-02-19T04:35:58.732Z,2.86
2023-02-19T04:37:00.306Z,2.91
2023-02-19T04:38:01.900Z,2.98
2023-02-19T04:39:03.814Z,3.00
2023-02-19T04:40:05.995Z,3.03
2023-02-19T04:41:09.788Z,3.06
2023-02-19T04:42:11.547Z,3.11
2023-02-19T04:43:13.162Z,3.16
2023-02-19T04:44:14.714Z,3.21
2023-02-19T04:45:16.315Z,3.25
2023-02-19T04:46:17.945Z,3.30
2023-02-19T04:47:19.502Z,3.37
2023-02-19T04:48:21.064Z,3.34
2023-02-19T04:49:22.650Z,3.36
2023-02-19T04:50:24.521Z,3.39
2023-02-19T04:51:26.065Z,3.39
2023-02-19T04:52:27.640Z,3.38
2023-02-19T04:53:29.187Z,3.40
2023-02-19T04:54:30.752Z,3.42
2023-02-19T04:55:32.683Z,3.47
2023-02-19T04:56:34.449Z,3.50
2023-02-19T04:57:36.209Z,3.54
2023-02-19T04:58:38.408Z,3.62
2023-02-19T04:59:39.987Z,3.65
2023-02-19T05:00:41.554Z,3.67
2023-02-19T05:01:43.274Z,3.69
2023-02-19T05:02:44.917Z,3.73
2023-02-19T05:03:46.770Z,3.75
2023-02-19T05:04:48.833Z,3.78
2023-02-19T05:05:50.398Z,3.81
2023-02-19T05:06:51.973Z,3.86
2023-02-19T05:07:54.004Z,3.90
2023-02-19T05:08:55.546Z,3.92
2023-02-19T05:09:57.141Z,3.84
2023-02-19T05:11:03.094Z,3.72
2023-02-19T05:12:04.720Z,3.59
2023-02-19T05:13:06.240Z,3.48
2023-02-19T05:14:07.770Z,3.45
2023-02-19T05:15:09.395Z,3.34
2023-02-19T05:16:16.276Z,3.28
2023-02-19T05:17:18.070Z,3.18
2023-02-19T05:18:19.629Z,3.14
2023-02-19T05:19:21.258Z,3.14
2023-02-19T05:20:23.071Z,3.16
2023-02-19T05:21:24.789Z,3.16
2023-02-19T05:22:26.350Z,3.09
2023-02-19T05:23:28.688Z,3.08
2023-02-19T05:24:31.585Z,3.13
2023-02-19T05:25:33.134Z,3.16
2023-02-19T05:26:34.818Z,3.20
2023-02-19T05:27:36.325Z,3.27
2023-02-19T05:28:38.074Z,3.31
2023-02-19T05:29:39.660Z,3.33
2023-02-19T05:30:41.225Z,3.28
2023-02-19T05:31:42.913Z,3.26
2023-02-19T05:32:44.550Z,3.26
2023-02-19T05:33:50.211Z,3.31
2023-02-19T05:34:51.820Z,3.32
2023-02-19T05:35:55.360Z,3.32
2023-02-19T05:36:56.920Z,3.35
2023-02-19T05:37:58.551Z,3.38
2023-02-19T05:39:00.367Z,3.45
2023-02-19T05:40:01.952Z,3.48
2023-02-19T05:41:11.688Z,3.51
2023-02-19T05:42:14.970Z,3.55
2023-02-19T05:43:17.186Z,3.59
2023-02-19T05:44:18.729Z,3.63
2023-02-19T05:45:20.253Z,3.65
2023-02-19T05:46:24.762Z,3.69
2023-02-19T05:47:26.303Z,3.72
2023-02-19T05:48:27.815Z,3.70
2023-02-19T05:49:29.386Z,3.63
2023-02-19T05:50:38.692Z,3.55
2023-02-19T05:51:41.235Z,3.61
2023-02-19T05:52:44.236Z,3.67
2023-02-19T05:53:46.797Z,3.73
2023-02-19T05:54:48.359Z,3.79
2023-02-19T05:55:49.884Z,3.83
2023-02-19T05:56:51.580Z,3.89
2023-02-19T05:57:53.168Z,3.94
2023-02-19T05:58:55.546Z,3.99
2023-02-19T05:59:57.178Z,4.03
2023-02-19T06:00:58.711Z,4.09
2023-02-19T06:02:00.317Z,4.13
2023-02-19T06:03:02.258Z,4.16
2023-02-19T06:04:04.195Z,4.16
2023-02-19T06:05:06.504Z,4.23
2023-02-19T06:06:08.413Z,4.26
2023-02-19T06:07:09.967Z,4.29
2023-02-19T06:08:16.100Z,4.33
2023-02-19T06:09:17.885Z,4.36
2023-02-19T06:10:19.807Z,4.38
2023-02-19T06:11:21.769Z,4.39
2023-02-19T06:12:23.739Z,4.36
2023-02-19T06:13:25.288Z,4.35
2023-02-19T06:14:26.871Z,4.35
2023-02-19T06:15:29.994Z,4.31
2023-02-19T06:16:33.628Z,4.19
2023-02-19T06:17:35.740Z,4.01
2023-02-19T06:18:37.665Z,3.82
2023-02-19T06:19:39.269Z,3.77
2023-02-19T06:20:40.851Z,3.71
2023-02-19T06:21:42.363Z,3.54
2023-02-19T06:22:43.934Z,3.41
2023-02-19T06:23:45.951Z,3.37
2023-02-19T06:24:48.518Z,3.37
2023-02-19T06:25:50.094Z,3.39
2023-02-19T06:26:51.675Z,3.34
2023-02-19T06:27:53.211Z,3.21
2023-02-19T06:28:54.829Z,3.05
2023-02-19T06:29:56.425Z,3.16
2023-02-19T06:31:01.193Z,3.25
2023-02-19T06:32:02.849Z,3.33
2023-02-19T06:33:04.513Z,3.37
2023-02-19T06:34:06.101Z,3.40
2023-02-19T06:35:07.828Z,3.39
2023-02-19T06:36:18.069Z,3.46
2023-02-19T06:37:19.606Z,3.56
2023-02-19T06:38:22.236Z,3.67
2023-02-19T06:39:23.800Z,3.78
2023-02-19T06:40:25.361Z,3.79
2023-02-19T06:41:27.013Z,3.81
2023-02-19T06:42:32.127Z,3.87
2023-02-19T06:43:34.697Z,3.92
2023-02-19T06:44:36.361Z,3.98
2023-02-19T06:45:37.909Z,4.08
2023-02-19T06:46:39.652Z,4.19
2023-02-19T06:47:41.284Z,4.29
2023-02-19T06:48:44.732Z,4.41
2023-02-19T06:49:46.278Z,4.46
2023-02-19T06:50:47.799Z,4.51
2023-02-19T06:51:49.378Z,4.52
2023-02-19T06:52:50.936Z,4.50
2023-02-19T06:53:53.191Z,4.45
2023-02-19T06:54:54.743Z,4.45
2023-02-19T06:56:05.360Z,4.51
2023-02-19T06:57:06.894Z,4.56
2023-02-19T06:58:08.518Z,4.65
2023-02-19T06:59:13.056Z,4.72
2023-02-19T07:00:15.029Z,4.73
2023-02-19T07:01:17.190Z,4.78
2023-02-19T07:02:18.789Z,4.78
2023-02-19T07:03:20.662Z,4.80
2023-02-19T07:04:22.264Z,4.79
2023-02-19T07:05:23.907Z,4.73
2023-02-19T07:06:26.979Z,4.83
2023-02-19T07:07:28.509Z,4.89
2023-02-19T07:08:30.707Z,4.97
2023-02-19T07:09:32.464Z,4.89
2023-02-19T07:10:34.051Z,4.90
2023-02-19T07:11:38.959Z,5.04
2023-02-19T07:12:40.495Z,5.16
2023-02-19T07:13:42.036Z,5.31
2023-02-19T07:14:43.585Z,5.51
2023-02-19T07:15:45.117Z,5.63
2023-02-19T07:16:47.523Z,5.74
2023-02-19T07:17:49.158Z,5.90
2023-02-19T07:18:50.804Z,5.92
2023-02-19T07:19:52.406Z,5.89
2023-02-19T07:20:54.087Z,5.90
2023-02-19T07:21:55.827Z,5.95
2023-02-19T07:22:57.954Z,5.87
2023-02-19T07:23:59.517Z,5.89
2023-02-19T07:25:01.035Z,5.94
2023-02-19T07:26:03.032Z,6.11
2023-02-19T07:27:04.566Z,6.30
2023-02-19T07:28:06.714Z,6.45
2023-02-19T07:29:10.011Z,6.65
2023-02-19T07:30:11.865Z,6.83
2023-02-19T07:31:15.436Z,6.97
2023-02-19T07:32:17.190Z,7.10
2023-02-19T07:33:19.004Z,7.20
2023-02-19T07:34:20.929Z,7.37
2023-02-19T07:35:22.487Z,7.56
2023-02-19T07:36:24.767Z,7.70
2023-02-19T07:37:26.276Z,7.83
2023-02-19T07:38:28.002Z,7.96
2023-02-19T07:39:29.556Z,7.99
2023-02-19T07:40:31.111Z,8.05
2023-02-19T07:41:34.469Z,8.08
2023-02-19T07:42:36.092Z,8.09
2023-02-19T07:43:38.678Z,8.08
2023-02-19T07:44:40.283Z,8.09
2023-02-19T07:45:41.829Z,8.14
2023-02-19T07:46:43.791Z,8.26
2023-02-19T07:47:45.330Z,8.23
2023-02-19T07:48:46.862Z,8.17
2023-02-19T07:49:48.373Z,8.23
2023-02-19T07:50:58.275Z,8.17
2023-02-19T07:51:59.826Z,8.20
2023-02-19T07:53:01.374Z,8.34
2023-02-19T07:54:03.005Z,8.53
2023-02-19T07:55:04.757Z,8.59
2023-02-19T07:56:07.937Z,8.35
2023-02-19T07:57:09.460Z,8.28
2023-02-19T07:58:11.080Z,8.35
2023-02-19T07:59:12.666Z,8.49
2023-02-19T08:00:14.477Z,8.51
2023-02-19T08:01:19.058Z,8.67
2023-02-19T08:02:39.754Z,8.78
2023-02-19T08:03:42.302Z,8.97
2023-02-19T08:04:45.657Z,9.05
2023-02-19T08:05:49.795Z,9.15
2023-02-19T08:06:53.164Z,9.28
2023-02-19T08:07:54.917Z,9.38
2023-02-19T08:08:57.881Z,9.37
2023-02-19T08:10:18.415Z,9.44
2023-02-19T08:11:38.504Z,9.35
2023-02-19T08:13:08.989Z,9.40
2023-02-19T08:14:10.943Z,9.52
2023-02-19T08:15:12.490Z,9.59
2023-02-19T08:16:24.389Z,9.45
2023-02-19T08:17:34.900Z,9.47
2023-02-19T08:18:36.841Z,9.73
2023-02-19T08:19:38.415Z,9.95
2023-02-19T08:20:40.578Z,10.10
2023-02-19T08:21:42.156Z,10.12
2023-02-19T08:22:43.725Z,10.00
2023-02-19T08:23:46.456Z,10.28
2023-02-19T08:24:47.971Z,10.51
2023-02-19T08:25:51.100Z,10.73
2023-02-19T08:26:53.301Z,10.89
2023-02-19T08:27:54.888Z,11.04
2023-02-19T08:28:56.477Z,11.14
2023-02-19T08:29:58.006Z,11.28
2023-02-19T08:31:02.086Z,11.44
2023-02-19T08:32:03.780Z,11.45
2023-02-19T08:33:07.098Z,11.41
2023-02-19T08:34:08.645Z,11.37
2023-02-19T08:35:10.667Z,11.48
2023-02-19T08:36:12.325Z,11.59
2023-02-19T08:37:13.899Z,11.55
2023-02-19T08:38:16.519Z,11.51
2023-02-19T08:39:20.139Z,11.50
2023-02-19T08:40:22.983Z,11.64
2023-02-19T08:41:24.536Z,11.76
2023-02-19T08:42:26.087Z,11.87
2023-02-19T08:43:27.642Z,11.98
2023-02-19T08:44:29.759Z,12.03
2023-02-19T08:45:31.629Z,12.07
2023-02-19T08:46:34.505Z,12.14
2023-02-19T08:47:36.676Z,12.11
2023-02-19T08:48:39.312Z,12.15
2023-02-19T08:49:40.866Z,12.20
2023-02-19T08:50:42.545Z,12.24
2023-02-19T08:51:44.149Z,12.29
2023-02-19T08:52:45.739Z,12.41
2023-02-19T08:53:47.346Z,12.46
2023-02-19T08:54:48.919Z,12.56
2023-02-19T08:55:50.872Z,12.73
2023-02-19T08:56:52.419Z,12.78
2023-02-19T08:57:54.089Z,12.90
2023-02-19T08:58:55.619Z,12.92
2023-02-19T08:59:57.383Z,12.93
2023-02-19T09:00:59.111Z,12.50
2023-02-19T09:02:00.959Z,12.29
2023-02-19T09:03:02.547Z,12.21
2023-02-19T09:04:04.296Z,12.07
2023-02-19T09:05:06.079Z,12.12
2023-02-19T09:06:08.349Z,12.14
2023-02-19T09:07:12.349Z,12.17
2023-02-19T09:08:13.992Z,12.25
2023-02-19T09:09:15.601Z,12.29
2023-02-19T09:10:17.175Z,12.31
2023-02-19T09:11:18.791Z,12.25
2023-02-19T09:12:20.991Z,12.18
2023-02-19T09:13:22.554Z,12.24
2023-02-19T09:14:24.078Z,12.07
2023-02-19T09:15:25.832Z,12.02
2023-02-19T09:16:27.426Z,11.99
2023-02-19T09:17:29.006Z,11.95
2023-02-19T09:18:30.610Z,12.09
2023-02-19T09:19:32.316Z,12.15
2023-02-19T09:20:33.930Z,12.22
2023-02-19T09:21:35.462Z,12.00
2023-02-19T09:22:37.151Z,11.79
2023-02-19T09:23:38.731Z,11.66
2023-02-19T09:26:00.141Z,11.86
2023-02-19T09:27:02.373Z,11.94
2023-02-19T09:28:04.370Z,12.08
2023-02-19T09:29:08.156Z,12.13
2023-02-19T09:30:10.383Z,12.22
2023-02-19T09:31:15.949Z,12.28
2023-02-19T09:32:19.346Z,12.45
2023-02-19T09:33:21.004Z,12.57
2023-02-19T09:34:22.644Z,12.52
2023-02-19T09:35:24.331Z,12.29
2023-02-19T09:36:25.898Z,12.03
2023-02-19T09:37:28.025Z,12.08
2023-02-19T09:38:31.025Z,12.17
2023-02-19T09:39:33.944Z,12.16
2023-02-19T09:40:36.274Z,12.23
2023-02-19T09:41:47.103Z,12.35
2023-02-19T09:42:51.221Z,12.48
2023-02-19T09:43:52.965Z,12.51
2023-02-19T09:44:57.594Z,12.54
2023-02-19T09:46:09.768Z,12.59
2023-02-19T09:47:23.613Z,12.58
2023-02-19T09:48:25.308Z,12.58
2023-02-19T09:49:36.172Z,12.61
2023-02-19T09:50:41.532Z,12.73
2023-02-19T09:51:49.167Z,12.86
2023-02-19T09:52:58.239Z,13.00
2023-02-19T09:54:00.954Z,13.01
2023-02-19T09:55:13.158Z,13.01
2023-02-19T09:56:14.944Z,13.11
2023-02-19T09:57:21.347Z,13.21
2023-02-19T09:58:28.084Z,13.33
2023-02-19T09:59:40.641Z,13.17
2023-02-19T10:00:42.804Z,12.90
2023-02-19T10:01:45.315Z,12.91
2023-02-19T10:02:47.091Z,13.01
2023-02-19T10:03:50.296Z,13.03
2023-02-19T10:04:53.018Z,13.10
2023-02-19T10:05:56.511Z,13.16
2023-02-19T10:07:03.429Z,13.32
2023-02-19T10:08:08.875Z,13.41
2023-02-19T10:09:26.958Z,13.43
2023-02-19T10:10:34.343Z,13.51
2023-02-19T10:11:36.046Z,13.62
2023-02-19T10:12:37.845Z,13.71
2023-02-19T10:13:47.424Z,13.79
2023-02-19T10:14:51.612Z,13.91
2023-02-19T10:15:56.983Z,13.90
2023-02-19T10:17:03.549Z,13.96
2023-02-19T10:18:08.822Z,14.09
2023-02-19T10:19:16.337Z,14.05
2023-02-19T10:20:24.664Z,14.05
2023-02-19T10:21:28.066Z,14.12
2023-02-19T10:22:31.604Z,14.17
2023-02-19T10:23:34.098Z,14.18
2023-02-19T10:24:38.498Z,14.22
2023-02-19T10:25:46.444Z,14.27
2023-02-19T10:26:49.633Z,14.38
2023-02-19T10:27:51.222Z,14.43
2023-02-19T10:28:54.710Z,14.34
2023-02-19T10:29:56.678Z,14.35
2023-02-19T10:31:00.366Z,14.41
2023-02-19T10:32:21.245Z,14.47
2023-02-19T10:33:23.659Z,14.52
2023-02-19T10:34:25.737Z,14.49
2023-02-19T10:35:27.949Z,14.46
2023-02-19T10:36:34.008Z,14.36
2023-02-19T10:37:41.755Z,14.35
2023-02-19T10:38:47.958Z,14.42
2023-02-19T10:39:50.816Z,14.50
2023-02-19T10:41:13.799Z,14.53
2023-02-19T10:42:23.385Z,14.56
2023-02-19T10:43:34.088Z,14.60
2023-02-19T10:44:42.585Z,14.66
2023-02-19T10:45:50.536Z,14.68
2023-02-19T10:46:57.485Z,14.73
2023-02-19T10:48:00.104Z,14.81
2023-02-19T10:49:17.794Z,14.82
2023-02-19T10:50:25.578Z,14.93
2023-02-19T10:51:36.604Z,14.94
2023-02-19T10:52:38.511Z,14.95
2023-02-19T10:53:44.167Z,14.99
2023-02-19T10:54:49.367Z,15.05
2023-02-19T10:56:10.843Z,15.11
2023-02-19T10:57:15.552Z,15.17
2023-02-19T10:58:30.353Z,15.19
2023-02-19T10:59:31.941Z,15.15
2023-02-19T11:00:33.523Z,15.11
2023-02-19T11:01:35.102Z,15.12
2023-02-19T11:02:36.650Z,15.15
2023-02-19T11:03:38.890Z,15.22
2023-02-19T11:04:40.529Z,15.28
2023-02-19T11:06:11.084Z,15.30
2023-02-19T11:07:18.671Z,15.29
2023-02-19T11:08:23.225Z,15.25
2023-02-19T11:09:27.294Z,15.26
2023-02-19T11:10:44.957Z,15.28
2023-02-19T11:11:52.068Z,15.32
2023-02-19T11:13:05.954Z,15.40
2023-02-19T11:14:24.905Z,15.39
2023-02-19T11:15:29.267Z,15.38
2023-02-19T11:16:39.985Z,15.42
2023-02-19T11:17:42.039Z,15.49
2023-02-19T11:18:45.086Z,15.56
2023-02-19T11:19:48.721Z,15.61
2023-02-19T11:21:05.416Z,15.60
2023-02-19T11:22:30.442Z,15.65
2023-02-19T11:23:37.612Z,15.70
2023-02-19T11:24:40.591Z,15.75
2023-02-19T11:25:47.640Z,15.82
2023-02-19T11:26:49.230Z,15.85
2023-02-19T11:27:55.123Z,15.88
2023-02-19T11:29:01.581Z,15.97
2023-02-19T11:30:33.920Z,16.00
2023-02-19T11:31:37.551Z,15.99
2023-02-19T11:32:39.182Z,16.01
2023-02-19T11:33:48.345Z,16.02
2023-02-19T11:34:50.033Z,15.99
2023-02-19T11:35:58.861Z,15.98
2023-02-19T11:37:21.077Z,15.95
2023-02-19T11:38:22.673Z,15.95
2023-02-19T11:39:32.117Z,15.98
2023-02-19T11:40:45.033Z,16.02
2023-02-19T11:42:21.152Z,16.10
2023-02-19T11:43:31.762Z,16.14
2023-02-19T11:44:39.768Z,16.15
2023-02-19T11:45:47.009Z,16.15
2023-02-19T11:47:19.344Z,16.23
2023-02-19T11:48:51.057Z,16.29
2023-02-19T11:50:21.587Z,16.26
2023-02-19T11:51:52.192Z,16.25
2023-02-19T11:53:16.508Z,16.30
2023-02-19T11:54:54.649Z,16.49
2023-02-19T11:56:08.591Z,16.59
2023-02-19T11:57:24.390Z,16.59
2023-02-19T11:58:37.780Z,16.65
2023-02-19T12:00:01.330Z,16.59
2023-02-19T12:01:39.942Z,16.55
2023-02-19T12:02:41.632Z,16.56
2023-02-19T12:04:26.799Z,16.55
2023-02-19T12:05:50.053Z,16.58
2023-02-19T12:07:29.765Z,16.56
2023-02-19T12:09:12.489Z,16.59
2023-02-19T12:10:29.056Z,16.68
2023-02-19T12:11:55.603Z,16.72
2023-02-19T12:13:24.917Z,16.73
2023-02-19T12:14:26.460Z,16.76
2023-02-19T12:16:05.234Z,16.87
2023-02-19T12:17:09.760Z,17.05
2023-02-19T12:18:36.228Z,17.11
2023-02-19T12:19:39.284Z,17.17
2023-02-19T12:21:20.933Z,17.22
2023-02-19T12:22:25.257Z,17.30
2023-02-19T12:23:26.719Z,17.31
2023-02-19T12:25:00.311Z,17.37
2023-02-19T12:26:32.683Z,17.36
2023-02-19T12:27:50.798Z,17.37
2023-02-19T12:29:11.274Z,17.41
2023-02-19T12:30:21.780Z,17.45
2023-02-19T12:31:53.517Z,17.43
2023-02-19T12:33:05.592Z,17.42
2023-02-19T12:34:25.231Z,17.47
2023-02-19T12:35:51.161Z,17.57
2023-02-19T12:36:58.690Z,17.64
2023-02-19T12:38:26.000Z,17.61
2023-02-19T12:40:02.228Z,17.57
2023-02-19T12:41:26.597Z,17.61
2023-02-19T12:42:55.837Z,17.68
2023-02-19T12:44:08.333Z,17.65
2023-02-19T12:45:34.214Z,17.59
2023-02-19T12:46:39.750Z,17.59
2023-02-19T12:47:43.422Z,17.65
2023-02-19T12:49:02.580Z,17.73
2023-02-19T12:50:22.514Z,17.83
2023-02-19T12:51:27.826Z,17.79
2023-02-19T12:52:36.830Z,17.83
2023-02-19T12:53:41.162Z,17.94
2023-02-19T12:54:46.531Z,17.98
2023-02-19T12:55:48.795Z,17.97
2023-02-19T12:56:59.906Z,18.01
2023-02-19T12:58:06.433Z,18.05
2023-02-19T12:59:33.451Z,18.02
2023-02-19T13:00:42.613Z,17.97
2023-02-19T13:01:56.415Z,17.95
2023-02-19T13:03:12.951Z,17.97
2023-02-19T13:04:28.190Z,17.98
2023-02-19T13:05:45.197Z,17.96
2023-02-19T13:07:09.401Z,17.95
2023-02-19T13:08:20.482Z,18.05
2023-02-19T13:09:42.255Z,18.12
2023-02-19T13:10:50.849Z,18.14
2023-02-19T13:12:02.583Z,18.16
2023-02-19T13:13:10.751Z,18.22
2023-02-19T13:14:29.296Z,18.19
2023-02-19T13:15:41.823Z,18.26
2023-02-19T13:16:48.600Z,18.30
2023-02-19T13:17:57.000Z,18.32
2023-02-19T13:19:04.297Z,18.34
2023-02-19T13:20:32.687Z,18.39
2023-02-19T13:21:55.785Z,18.38
2023-02-19T13:23:37.306Z,18.33
2023-02-19T13:24:42.965Z,18.27
2023-02-19T13:25:44.475Z,18.26
2023-02-19T13:26:54.398Z,18.30
2023-02-19T13:28:02.018Z,18.29
2023-02-19T13:29:06.303Z,18.31
2023-02-19T13:30:22.734Z,18.35
2023-02-19T13:31:52.449Z,18.42
2023-02-19T13:33:11.663Z,18.43
2023-02-19T13:34:22.509Z,18.51
2023-02-19T13:35:52.906Z,18.56
2023-02-19T13:36:55.770Z,18.55
2023-02-19T13:38:02.261Z,18.56
2023-02-19T13:39:07.403Z,18.59
2023-02-19T13:40:34.945Z,18.55
2023-02-19T13:41:43.328Z,18.61
2023-02-19T13:42:52.717Z,18.60
2023-02-19T13:44:05.991Z,18.59
2023-02-19T13:45:19.791Z,18.64
2023-02-19T13:46:21.773Z,18.62
2023-02-19T13:47:45.140Z,18.63
2023-02-19T13:48:46.732Z,18.64
2023-02-19T13:49:52.284Z,18.57
2023-02-19T13:51:12.689Z,18.61
2023-02-19T13:52:29.702Z,18.57
2023-02-19T13:53:44.761Z,18.54
2023-02-19T13:54:46.348Z,18.55
2023-02-19T13:55:52.008Z,18.57
2023-02-19T13:57:18.270Z,18.64
2023-02-19T13:58:51.904Z,18.65
2023-02-19T13:59:58.200Z,18.62
2023-02-19T14:01:08.538Z,18.61
2023-02-19T14:02:20.604Z,18.59
2023-02-19T14:03:35.740Z,18.59
2023-02-19T14:04:51.551Z,18.65
2023-02-19T14:06:06.437Z,18.60
2023-02-19T14:07:08.015Z,18.59
2023-02-19T14:08:09.756Z,18.57
2023-02-19T14:09:40.631Z,18.58
2023-02-19T14:10:55.010Z,18.65
2023-02-19T14:12:04.245Z,18.67
2023-02-19T14:13:08.502Z,18.75
2023-02-19T14:14:35.206Z,18.75
2023-02-19T14:15:36.773Z,18.76
2023-02-19T14:16:38.331Z,18.78
2023-02-19T14:17:43.668Z,18.80
2023-02-19T14:18:46.558Z,18.83
2023-02-19T14:19:52.776Z,18.82
2023-02-19T14:21:07.613Z,18.87
2023-02-19T14:22:46.584Z,18.90
2023-02-19T14:23:53.607Z,18.94
2023-02-19T14:24:58.053Z,18.85
2023-02-19T14:26:01.271Z,18.76
2023-02-19T14:27:03.519Z,18.72
2023-02-19T14:28:05.092Z,18.72
2023-02-19T14:29:08.821Z,18.74
2023-02-19T14:30:13.367Z,18.74
2023-02-19T14:31:21.164Z,18.72
2023-02-19T14:32:23.141Z,18.72
2023-02-19T14:33:37.698Z,18.74
2023-02-19T14:34:39.580Z,18.69
2023-02-19T14:35:45.351Z,18.69
2023-02-19T14:36:54.324Z,18.66
2023-02-19T14:37:57.307Z,18.65
2023-02-19T14:39:30.006Z,18.64
2023-02-19T14:40:43.237Z,18.61
2023-02-19T14:42:02.962Z,18.60
2023-02-19T14:43:06.598Z,18.63